Time;durP1;ratioP1;P1;durP2;ratioP2;P2;SDS_P1;SDS_P2;PMS_P1;PMS_P2;Temp;Humidity;BMP_temperature;BMP_pressure;BME280_temperature;BME280_humidity;BME280_pressure;Samples;Min_cycle;Max_cycle;Signal;HPM_P1;HPM_P2
2021/06/29 00:01:06;;;;;;;11.95;7.78;;;19.80;99.90;;;;;;5116255;27;20102;-62
2021/06/29 00:03:31;;;;;;;12.00;8.13;;;19.80;99.90;;;;;;5116497;27;20022;-61
2021/06/29 00:05:57;;;;;;;11.60;8.57;;;19.80;99.90;;;;;;5112308;28;20035;-61
2021/06/29 00:08:22;;;;;;;20.52;10.70;;;19.90;99.90;;;;;;5118048;27;20028;-61
2021/06/29 00:10:48;;;;;;;17.83;12.05;;;20.00;99.90;;;;;;5113514;27;20023;-64
2021/06/29 00:13:14;;;;;;;24.50;14.63;;;20.00;99.90;;;;;;5119371;27;20584;-60
2021/06/29 00:15:40;;;;;;;35.03;13.52;;;19.90;99.90;;;;;;5119629;27;20102;-62
2021/06/29 00:18:06;;;;;;;21.67;13.25;;;19.90;99.90;;;;;;5113529;27;20091;-61
2021/06/29 00:20:33;;;;;;;18.80;12.65;;;19.90;99.90;;;;;;5117077;27;20016;-61
2021/06/29 00:22:58;;;;;;;28.83;17.30;;;19.90;99.90;;;;;;5112614;27;20112;-61
2021/06/29 00:25:24;;;;;;;20.15;14.07;;;19.70;99.90;;;;;;5124700;27;20028;-57
2021/06/29 00:27:50;;;;;;;25.05;15.23;;;19.70;99.90;;;;;;5099003;28;20024;-60
2021/06/29 00:30:16;;;;;;;23.77;18.20;;;19.70;99.90;;;;;;5122172;27;20030;-61
2021/06/29 00:32:42;;;;;;;30.42;19.50;;;19.60;99.90;;;;;;5110624;27;20026;-60
2021/06/29 00:35:08;;;;;;;30.83;21.75;;;19.50;99.90;;;;;;5115051;27;20026;-64
2021/06/29 00:37:34;;;;;;;34.30;22.88;;;19.40;99.90;;;;;;5112209;28;20098;-61
2021/06/29 00:39:59;;;;;;;33.45;23.15;;;19.40;99.90;;;;;;5107249;28;20184;-61
2021/06/29 00:42:25;;;;;;;29.45;20.52;;;19.30;99.90;;;;;;5104667;27;20031;-63
2021/06/29 00:44:50;;;;;;;30.25;23.25;;;19.30;99.90;;;;;;5112726;27;20064;-61
2021/06/29 00:47:16;;;;;;;35.95;22.70;;;19.20;99.90;;;;;;5111710;27;20501;-63
2021/06/29 00:49:42;;;;;;;36.00;24.95;;;19.20;99.90;;;;;;5110037;28;20020;-62
2021/06/29 00:52:12;;;;;;;33.22;22.90;;;19.20;99.90;;;;;;5112413;27;20412;-61
2021/06/29 00:54:39;;;;;;;33.58;22.70;;;19.20;99.90;;;;;;5117296;27;20103;-64
2021/06/29 00:57:07;;;;;;;31.33;22.90;;;19.20;99.90;;;;;;5112149;27;20024;-63
2021/06/29 00:59:33;;;;;;;38.22;23.40;;;19.20;99.90;;;;;;5111498;27;20478;-60
2021/06/29 01:01:59;;;;;;;27.80;19.67;;;19.20;99.90;;;;;;5120103;27;20064;-62
2021/06/29 01:04:25;;;;;;;30.63;19.08;;;19.20;99.90;;;;;;5119977;27;20031;-62
2021/06/29 01:06:51;;;;;;;24.13;17.13;;;19.20;99.90;;;;;;5112344;27;20024;-61
2021/06/29 01:09:18;;;;;;;15.93;10.50;;;19.10;99.90;;;;;;5122103;27;20382;-60
2021/06/29 01:11:45;;;;;;;12.82;10.77;;;19.10;99.90;;;;;;5119127;27;20491;-63
2021/06/29 01:14:13;;;;;;;16.80;10.85;;;19.10;99.90;;;;;;5113333;27;20043;-59
2021/06/29 01:16:40;;;;;;;16.42;11.60;;;19.10;99.90;;;;;;5097316;28;20036;-60
2021/06/29 01:19:06;;;;;;;17.83;10.68;;;19.10;99.90;;;;;;5120622;27;20080;-59
2021/06/29 01:21:39;;;;;;;13.70;9.90;;;19.00;99.90;;;;;;5100716;28;20028;-63
2021/06/29 01:24:09;;;;;;;17.13;10.98;;;19.00;99.90;;;;;;5092950;28;20039;-60
2021/06/29 01:26:37;;;;;;;14.52;10.57;;;18.90;99.90;;;;;;5092427;27;20118;-60
2021/06/29 01:29:05;;;;;;;13.73;9.82;;;18.90;99.90;;;;;;5093115;28;20039;-62
2021/06/29 01:31:35;;;;;;;14.18;10.35;;;18.80;99.90;;;;;;5100753;27;20463;-58
2021/06/29 01:34:02;;;;;;;16.83;11.90;;;18.80;99.90;;;;;;5081545;27;20610;-63
2021/06/29 01:36:36;;;;;;;15.48;11.60;;;18.80;99.90;;;;;;5116128;27;20478;-58
2021/06/29 01:39:04;;;;;;;;;;;18.70;99.90;;;;;;5100768;27;20031;-58
2021/06/29 01:41:29;;;;;;;16.10;12.32;;;18.70;99.90;;;;;;5082173;28;19911;-60
2021/06/29 01:44:02;;;;;;;17.40;12.73;;;18.70;99.90;;;;;;5128071;27;20102;-63
2021/06/29 01:46:31;;;;;;;14.85;12.50;;;18.70;99.90;;;;;;5132470;27;20023;-61
2021/06/29 01:48:57;;;;;;;18.92;12.15;;;18.60;99.90;;;;;;5104188;28;20058;-59
2021/06/29 01:51:23;;;;;;;21.10;12.85;;;18.60;99.90;;;;;;5115384;27;20027;-60
2021/06/29 01:53:53;;;;;;;18.63;14.45;;;18.70;99.90;;;;;;5111907;27;20599;-61
2021/06/29 01:56:26;;;;;;;17.05;11.20;;;18.60;99.90;;;;;;5079632;28;20073;-59
2021/06/29 01:58:57;;;;;;;14.30;11.65;;;18.70;99.90;;;;;;5111652;28;20023;-61
2021/06/29 02:01:23;;;;;;;14.93;11.30;;;18.80;99.90;;;;;;5122518;27;20024;-61
2021/06/29 02:03:49;;;;;;;19.77;12.50;;;18.70;99.90;;;;;;5094312;28;20031;-62
2021/06/29 02:06:17;;;;;;;22.60;12.30;;;18.70;99.90;;;;;;5111364;28;20824;-63
2021/06/29 02:08:43;;;;;;;15.95;11.95;;;18.70;99.90;;;;;;5110573;27;20535;-63
2021/06/29 02:11:09;;;;;;;21.58;12.77;;;18.60;99.90;;;;;;5110279;27;20106;-63
2021/06/29 02:13:35;;;;;;;17.70;13.73;;;18.50;99.90;;;;;;5108142;28;20103;-60
2021/06/29 02:16:01;;;;;;;23.25;16.08;;;18.50;99.90;;;;;;5093423;28;20491;-62
2021/06/29 02:18:30;;;;;;;22.08;14.85;;;18.40;99.90;;;;;;5118231;27;20041;-63
2021/06/29 02:20:56;;;;;;;21.17;14.38;;;18.40;99.90;;;;;;5111918;28;20103;-61
2021/06/29 02:23:22;;;;;;;18.95;14.73;;;18.40;99.90;;;;;;5094181;28;20031;-60
2021/06/29 02:25:47;;;;;;;26.10;16.05;;;18.30;99.90;;;;;;5125532;27;20031;-59
2021/06/29 02:28:13;;;;;;;19.33;15.52;;;18.30;99.90;;;;;;5100773;28;20028;-61
2021/06/29 02:30:41;;;;;;;20.75;14.75;;;18.30;99.90;;;;;;5115425;28;20058;-62
2021/06/29 02:33:06;;;;;;;25.58;14.68;;;18.30;99.90;;;;;;5093955;28;20038;-59
2021/06/29 02:35:32;;;;;;;21.83;16.10;;;18.20;99.90;;;;;;5086300;28;20099;-58
2021/06/29 02:37:58;;;;;;;21.38;15.85;;;18.20;99.90;;;;;;5122662;28;20692;-61
2021/06/29 02:40:23;;;;;;;21.30;15.90;;;18.20;99.90;;;;;;5086033;28;20035;-61
2021/06/29 02:42:49;;;;;;;22.40;15.63;;;18.20;99.90;;;;;;5092516;28;20103;-61
2021/06/29 02:45:19;;;;;;;19.02;13.95;;;18.20;99.90;;;;;;5097282;28;20031;-61
2021/06/29 02:47:46;;;;;;;22.83;14.45;;;18.20;99.90;;;;;;5089761;28;20098;-60
2021/06/29 02:50:13;;;;;;;21.23;15.68;;;18.20;99.90;;;;;;5093749;28;20106;-59
2021/06/29 02:52:38;;;;;;;17.65;15.10;;;18.10;99.90;;;;;;5093715;28;20037;-61
2021/06/29 02:55:07;;;;;;;17.25;13.88;;;18.00;99.90;;;;;;5089195;28;20508;-61
2021/06/29 02:57:32;;;;;;;16.33;13.35;;;18.00;99.90;;;;;;5120928;28;20098;-62
2021/06/29 02:59:58;;;;;;;17.77;11.48;;;18.10;99.90;;;;;;5086160;28;20055;-59
2021/06/29 03:02:24;;;;;;;15.35;11.32;;;18.10;99.90;;;;;;5100746;28;20047;-58
2021/06/29 03:04:50;;;;;;;18.38;10.30;;;18.10;99.90;;;;;;5087093;28;20032;-60
2021/06/29 03:07:16;;;;;;;15.90;8.75;;;18.10;99.90;;;;;;5101884;28;20028;-60
2021/06/29 03:09:42;;;;;;;12.00;7.82;;;18.10;99.90;;;;;;5112135;27;20027;-59
2021/06/29 03:12:08;;;;;;;8.00;6.25;;;18.10;99.90;;;;;;5106245;27;20031;-61
2021/06/29 03:14:35;;;;;;;12.07;6.47;;;18.00;99.90;;;;;;5142351;22;20044;-57
2021/06/29 03:17:03;;;;;;;5.65;5.10;;;18.00;99.90;;;;;;5099308;28;20032;-54
2021/06/29 03:19:31;;;;;;;12.82;5.88;;;18.00;99.90;;;;;;5086017;28;20023;-55
2021/06/29 03:21:57;;;;;;;10.20;6.40;;;18.00;99.90;;;;;;5070317;28;20387;-58
2021/06/29 03:24:22;;;;;;;14.43;6.40;;;18.00;99.90;;;;;;5093931;28;20035;-59
2021/06/29 03:26:48;;;;;;;9.63;6.93;;;18.00;99.90;;;;;;5082069;28;20478;-61
2021/06/29 03:29:13;;;;;;;10.75;7.20;;;17.90;99.90;;;;;;5110675;28;20355;-59
2021/06/29 03:31:39;;;;;;;8.82;7.35;;;17.80;99.90;;;;;;5089991;28;20036;-56
2021/06/29 03:34:04;;;;;;;11.40;6.95;;;17.90;99.90;;;;;;5094931;28;20024;-56
2021/06/29 03:36:30;;;;;;;10.00;5.90;;;17.90;99.90;;;;;;5078781;28;20023;-59
2021/06/29 03:38:56;;;;;;;12.82;5.88;;;17.90;99.90;;;;;;5092226;28;20463;-57
2021/06/29 03:41:23;;;;;;;6.78;4.93;;;17.90;99.90;;;;;;5092823;28;20119;-57
2021/06/29 03:43:49;;;;;;;8.60;5.57;;;18.00;99.90;;;;;;5096295;28;20042;-59
2021/06/29 03:46:14;;;;;;;7.30;4.50;;;17.90;99.90;;;;;;5091922;28;20036;-56
2021/06/29 03:48:40;;;;;;;6.30;4.43;;;18.00;99.90;;;;;;5097215;28;20048;-57
2021/06/29 03:51:05;;;;;;;5.40;4.38;;;17.90;99.90;;;;;;5095116;28;20031;-57
2021/06/29 03:53:31;;;;;;;9.13;4.43;;;17.90;99.90;;;;;;5097559;28;20028;-56
2021/06/29 03:55:57;;;;;;;8.82;4.10;;;17.90;99.90;;;;;;5092120;28;20097;-57
2021/06/29 03:58:22;;;;;;;4.85;4.30;;;17.90;99.90;;;;;;5107512;28;20066;-57
2021/06/29 04:00:48;;;;;;;12.00;4.35;;;17.90;99.90;;;;;;5091515;28;20376;-60
2021/06/29 04:03:13;;;;;;;9.85;4.40;;;17.90;99.90;;;;;;5077376;28;20065;-57
2021/06/29 04:05:39;;;;;;;7.93;5.28;;;17.80;99.90;;;;;;5088530;28;20020;-55
2021/06/29 04:08:05;;;;;;;11.70;4.68;;;17.70;99.90;;;;;;5092209;28;20058;-59
2021/06/29 04:10:31;;;;;;;11.70;5.32;;;17.80;99.90;;;;;;5106413;28;20039;-56
2021/06/29 04:12:57;;;;;;;8.50;4.90;;;17.70;99.90;;;;;;5099116;28;20111;-57
2021/06/29 04:15:23;;;;;;;12.35;4.20;;;17.80;99.90;;;;;;5102271;28;20031;-56
2021/06/29 04:17:48;;;;;;;7.68;4.47;;;17.70;99.90;;;;;;5096687;28;20027;-58
2021/06/29 04:20:14;;;;;;;7.50;4.20;;;17.70;99.90;;;;;;5099820;28;20020;-54
2021/06/29 04:22:40;;;;;;;7.68;4.07;;;17.70;99.90;;;;;;5094777;28;20023;-56
2021/06/29 04:25:08;;;;;;;8.60;4.38;;;17.80;99.90;;;;;;5075843;28;20031;-58
2021/06/29 04:27:34;;;;;;;9.73;4.13;;;17.80;99.90;;;;;;5089511;28;20107;-59
2021/06/29 04:29:59;;;;;;;6.55;4.15;;;17.80;99.90;;;;;;5071946;28;20154;-57
2021/06/29 04:32:25;;;;;;;8.32;3.38;;;17.90;99.90;;;;;;5075336;28;20031;-58
2021/06/29 04:34:51;;;;;;;8.50;3.50;;;17.90;99.90;;;;;;5091830;28;20052;-58
2021/06/29 04:37:17;;;;;;;7.75;3.40;;;17.90;99.90;;;;;;5094150;28;20542;-55
2021/06/29 04:39:43;;;;;;;14.32;4.13;;;18.00;99.90;;;;;;5111776;28;20024;-56
2021/06/29 04:42:09;;;;;;;9.05;3.72;;;18.00;99.90;;;;;;5097428;28;20467;-56
2021/06/29 04:44:38;;;;;;;6.38;3.83;;;18.10;99.90;;;;;;5082371;28;20025;-58
2021/06/29 04:47:05;;;;;;;7.45;3.53;;;18.10;99.90;;;;;;5079178;28;20020;-57
2021/06/29 04:49:31;;;;;;;12.02;3.42;;;18.10;99.90;;;;;;5091732;28;20024;-59
2021/06/29 04:51:57;;;;;;;8.52;3.88;;;18.20;99.90;;;;;;5086489;28;20023;-57
2021/06/29 04:54:22;;;;;;;5.00;4.25;;;18.20;99.90;;;;;;5101868;28;20036;-55
2021/06/29 04:56:48;;;;;;;10.27;3.28;;;18.20;99.90;;;;;;5091453;28;20028;-57
2021/06/29 04:59:14;;;;;;;6.75;3.42;;;18.20;99.90;;;;;;5073902;28;20016;-53
2021/06/29 05:01:39;;;;;;;6.18;3.72;;;18.20;99.90;;;;;;5103140;28;20498;-53
2021/06/29 05:04:05;;;;;;;9.23;3.40;;;18.20;99.90;;;;;;5097875;28;20449;-58
2021/06/29 05:06:30;;;;;;;5.28;3.10;;;18.30;99.90;;;;;;5076563;28;20023;-56
2021/06/29 05:08:56;;;;;;;5.53;3.63;;;18.30;99.90;;;;;;5071935;28;20028;-60
2021/06/29 05:11:21;;;;;;;10.50;3.97;;;18.30;99.90;;;;;;5090253;28;20016;-56
2021/06/29 05:13:47;;;;;;;13.25;4.07;;;18.40;99.90;;;;;;5071462;28;20078;-56
2021/06/29 05:16:12;;;;;;;9.30;4.30;;;18.30;99.90;;;;;;5071506;28;20024;-56
2021/06/29 05:18:38;;;;;;;9.95;4.68;;;18.40;99.90;;;;;;5099975;28;20498;-56
2021/06/29 05:21:04;;;;;;;5.45;4.57;;;18.40;99.90;;;;;;5069574;28;20059;-58
2021/06/29 05:23:29;;;;;;;8.52;5.00;;;18.50;99.90;;;;;;5097242;28;20020;-59
2021/06/29 05:25:55;;;;;;;10.52;4.90;;;18.50;99.90;;;;;;5092159;28;20042;-56
2021/06/29 05:28:22;;;;;;;7.85;4.82;;;18.50;99.90;;;;;;5097842;28;20020;-60
2021/06/29 05:30:48;;;;;;;9.13;5.25;;;18.60;99.90;;;;;;5091973;28;20043;-61
2021/06/29 05:33:15;;;;;;;9.98;4.00;;;18.70;99.90;;;;;;5094328;28;20052;-61
2021/06/29 05:35:41;;;;;;;18.05;5.25;;;18.70;99.90;;;;;;5090588;28;20032;-58
2021/06/29 05:38:07;;;;;;;13.15;5.28;;;18.80;99.90;;;;;;5088703;28;20062;-58
2021/06/29 05:40:33;;;;;;;8.45;4.60;;;18.90;99.90;;;;;;5101179;28;20066;-61
2021/06/29 05:42:59;;;;;;;11.35;5.75;;;18.90;99.90;;;;;;5092682;28;20032;-59
2021/06/29 05:45:25;;;;;;;5.18;4.22;;;19.00;99.90;;;;;;5088975;28;20131;-60
2021/06/29 05:47:51;;;;;;;8.45;4.70;;;19.10;99.90;;;;;;5087622;28;20707;-60
2021/06/29 05:50:18;;;;;;;12.45;3.92;;;19.10;99.90;;;;;;5089320;28;20410;-60
2021/06/29 05:52:45;;;;;;;11.20;4.32;;;19.10;99.90;;;;;;5093455;28;20457;-61
2021/06/29 05:55:10;;;;;;;4.55;4.03;;;19.20;99.90;;;;;;5089817;28;20207;-61
2021/06/29 05:57:36;;;;;;;6.85;4.72;;;19.30;99.90;;;;;;5092430;28;20475;-61
2021/06/29 06:00:09;;;;;;;7.25;4.32;;;19.20;99.90;;;;;;5101687;28;20054;-61
2021/06/29 06:02:35;;;;;;;13.80;5.50;;;19.20;99.90;;;;;;5089137;28;20056;-60
2021/06/29 06:05:00;;;;;;;9.57;4.18;;;19.30;99.90;;;;;;5088321;28;20051;-60
2021/06/29 06:07:26;;;;;;;9.90;3.70;;;19.30;99.90;;;;;;5092544;28;20039;-58
2021/06/29 06:09:52;;;;;;;5.70;3.83;;;19.40;99.90;;;;;;5098324;28;20053;-60
2021/06/29 06:12:17;;;;;;;9.13;3.95;;;19.40;99.90;;;;;;5099534;28;20606;-59
2021/06/29 06:14:43;;;;;;;6.05;3.97;;;19.40;99.90;;;;;;5095903;28;20111;-58
2021/06/29 06:17:08;;;;;;;9.35;3.95;;;19.50;99.90;;;;;;5091319;28;20483;-60
2021/06/29 06:19:34;;;;;;;13.68;3.60;;;19.40;99.90;;;;;;5097684;28;20072;-58
2021/06/29 06:22:00;;;;;;;6.38;3.97;;;19.50;99.90;;;;;;5084592;28;20475;-60
2021/06/29 06:24:26;;;;;;;7.93;3.55;;;19.40;99.90;;;;;;5095891;28;20468;-60
2021/06/29 06:26:51;;;;;;;14.63;3.60;;;19.40;99.90;;;;;;5089989;28;20046;-60
2021/06/29 06:29:17;;;;;;;4.93;3.28;;;19.50;99.90;;;;;;5094136;28;20110;-60
2021/06/29 06:31:42;;;;;;;6.93;3.75;;;19.40;99.90;;;;;;5089657;28;20032;-60
2021/06/29 06:34:08;;;;;;;6.70;3.60;;;19.50;99.90;;;;;;5092482;28;20032;-60
2021/06/29 06:36:34;;;;;;;13.52;3.65;;;19.50;99.90;;;;;;5090160;28;20078;-58
2021/06/29 06:38:59;;;;;;;9.77;4.22;;;19.50;99.90;;;;;;5091352;28;20081;-57
2021/06/29 06:41:25;;;;;;;8.20;3.35;;;19.40;99.90;;;;;;5097140;28;20024;-60
2021/06/29 06:43:51;;;;;;;9.25;3.60;;;19.50;99.90;;;;;;5090525;28;20027;-60
2021/06/29 06:46:17;;;;;;;9.82;3.10;;;19.60;99.90;;;;;;5090021;28;20115;-60
2021/06/29 06:48:42;;;;;;;10.73;3.00;;;19.60;99.90;;;;;;5090272;28;20491;-60
2021/06/29 06:51:09;;;;;;;6.05;3.38;;;19.60;99.90;;;;;;5105291;28;20080;-59
2021/06/29 06:53:35;;;;;;;6.40;3.53;;;19.50;99.90;;;;;;5103226;28;20032;-60
2021/06/29 06:56:01;;;;;;;5.28;3.40;;;19.60;99.90;;;;;;5097825;28;20028;-60
2021/06/29 06:58:27;;;;;;;6.45;3.00;;;19.70;99.90;;;;;;5090445;28;20090;-58
2021/06/29 07:00:53;;;;;;;9.70;3.53;;;19.50;99.90;;;;;;5097103;28;20036;-61
2021/06/29 07:03:19;;;;;;;5.22;2.53;;;19.60;99.90;;;;;;5089975;28;20497;-61
2021/06/29 07:05:45;;;;;;;4.22;2.78;;;19.50;99.90;;;;;;5096053;28;20035;-61
2021/06/29 07:08:10;;;;;;;5.90;2.58;;;19.50;99.90;;;;;;5096654;28;20064;-60
2021/06/29 07:10:36;;;;;;;3.90;2.35;;;19.60;99.90;;;;;;5089926;28;20027;-62
2021/06/29 07:13:02;;;;;;;4.03;2.33;;;19.70;99.90;;;;;;5090282;28;20085;-62
2021/06/29 07:15:29;;;;;;;13.27;2.85;;;19.70;99.90;;;;;;5096495;28;20036;-61
2021/06/29 07:17:55;;;;;;;4.38;2.40;;;19.70;99.90;;;;;;5106029;28;20048;-61
2021/06/29 07:20:20;;;;;;;6.43;2.05;;;19.80;99.90;;;;;;5107456;28;20082;-62
2021/06/29 07:22:46;;;;;;;4.32;2.55;;;19.70;99.90;;;;;;5109594;28;20099;-61
2021/06/29 07:25:12;;;;;;;10.68;2.05;;;19.70;99.90;;;;;;5093800;28;20019;-59
2021/06/29 07:27:38;;;;;;;4.82;2.17;;;19.70;99.90;;;;;;5089752;28;20502;-61
2021/06/29 07:30:09;;;;;;;125.05;14.45;;;19.70;99.90;;;;;;5088779;28;20175;-61
2021/06/29 07:32:35;;;;;;;5.22;2.42;;;19.90;99.90;;;;;;5103850;28;20016;-60
2021/06/29 07:35:01;;;;;;;41.63;5.93;;;19.80;99.90;;;;;;5087690;28;20138;-58
2021/06/29 07:37:26;;;;;;;8.80;2.00;;;19.90;99.90;;;;;;5089512;28;20506;-61
2021/06/29 07:39:52;;;;;;;11.88;2.53;;;19.90;99.90;;;;;;5105260;28;20047;-61
2021/06/29 07:42:18;;;;;;;4.38;1.60;;;20.00;99.90;;;;;;5093003;28;20035;-59
2021/06/29 07:44:43;;;;;;;5.50;1.65;;;20.00;99.90;;;;;;5080449;28;20022;-61
2021/06/29 07:47:09;;;;;;;4.43;1.90;;;20.00;99.90;;;;;;5086788;28;20032;-61
2021/06/29 07:49:35;;;;;;;4.38;2.25;;;20.10;99.90;;;;;;5088012;28;20157;-58
2021/06/29 07:52:01;;;;;;;8.15;2.17;;;20.20;99.90;;;;;;5090421;28;20119;-58
2021/06/29 07:54:26;;;;;;;7.60;1.98;;;20.20;99.90;;;;;;5092917;28;20102;-60
2021/06/29 07:56:52;;;;;;;8.52;1.33;;;20.30;99.90;;;;;;5096954;28;20034;-60
2021/06/29 07:59:18;;;;;;;8.32;1.90;;;20.30;99.90;;;;;;5095998;28;20440;-61
2021/06/29 08:01:43;;;;;;;2.33;1.30;;;20.30;99.90;;;;;;5090640;28;20013;-61
2021/06/29 08:04:09;;;;;;;3.42;1.30;;;20.40;99.90;;;;;;5092507;28;20058;-55
2021/06/29 08:06:35;;;;;;;41.33;5.93;;;20.40;99.90;;;;;;5074424;28;20027;-61
2021/06/29 08:09:00;;;;;;;3.72;1.60;;;20.40;99.90;;;;;;5096187;28;20459;-59
2021/06/29 08:11:26;;;;;;;18.42;2.97;;;20.30;99.90;;;;;;5107486;28;20034;-61
2021/06/29 08:13:52;;;;;;;5.20;1.30;;;20.40;99.90;;;;;;5091888;28;20062;-61
2021/06/29 08:16:18;;;;;;;4.50;1.45;;;20.50;99.90;;;;;;5091841;28;20040;-59
2021/06/29 08:18:43;;;;;;;3.30;1.02;;;20.50;99.90;;;;;;5107446;28;20024;-59
2021/06/29 08:21:09;;;;;;;8.32;1.48;;;20.60;99.90;;;;;;5100115;28;20024;-60
2021/06/29 08:23:35;;;;;;;4.38;1.33;;;20.60;99.90;;;;;;5097608;28;20024;-58
2021/06/29 08:26:01;;;;;;;4.03;1.50;;;20.60;99.90;;;;;;5090088;28;20111;-60
2021/06/29 08:28:27;;;;;;;13.75;2.22;;;20.70;99.90;;;;;;5065629;28;20032;-60
2021/06/29 08:30:54;;;;;;;7.45;1.63;;;20.90;99.90;;;;;;5091758;28;20036;-61
2021/06/29 08:33:21;;;;;;;3.72;1.50;;;20.90;99.90;;;;;;5075889;28;20043;-56
2021/06/29 08:35:49;;;;;;;3.28;1.23;;;20.90;99.90;;;;;;5084568;28;20024;-59
2021/06/29 08:38:15;;;;;;;5.40;1.42;;;20.80;99.90;;;;;;5089305;28;20053;-59
2021/06/29 08:40:42;;;;;;;3.70;1.65;;;20.80;99.90;;;;;;5091526;28;20032;-58
2021/06/29 08:43:09;;;;;;;4.00;1.52;;;20.70;99.90;;;;;;5104080;28;20023;-59
2021/06/29 08:45:35;;;;;;;2.45;1.40;;;20.80;99.90;;;;;;5082525;28;20024;-60
2021/06/29 08:48:02;;;;;;;6.70;1.52;;;20.90;99.90;;;;;;5093578;28;20024;-56
2021/06/29 08:50:30;;;;;;;2.95;1.40;;;21.10;99.90;;;;;;5092057;28;20027;-56
2021/06/29 08:53:02;;;;;;;4.93;1.42;;;21.30;99.90;;;;;;5091491;28;20419;-59
2021/06/29 08:55:32;;;;;;;2.80;1.48;;;21.40;99.90;;;;;;5092548;28;20054;-59
2021/06/29 08:57:58;;;;;;;1.67;1.20;;;21.60;99.90;;;;;;5096108;28;20425;-61
2021/06/29 09:00:24;;;;;;;3.53;1.52;;;21.70;99.90;;;;;;5098573;28;20099;-61
2021/06/29 09:02:50;;;;;;;3.10;1.50;;;21.60;99.90;;;;;;5102160;28;20024;-61
2021/06/29 09:05:24;;;;;;;2.63;1.42;;;21.60;99.90;;;;;;5107565;28;20049;-59
2021/06/29 09:08:03;;;;;;;2.58;1.67;;;21.80;99.90;;;;;;5096618;28;20027;-56
2021/06/29 09:10:28;;;;;;;7.75;1.92;;;21.90;99.90;;;;;;5069651;28;20024;-59
2021/06/29 09:12:55;;;;;;;3.50;1.80;;;21.90;99.90;;;;;;5096374;28;20070;-60
2021/06/29 09:15:40;;;;;;;3.83;2.15;;;22.00;99.90;;;;;;5107062;22;20027;-60
2021/06/29 09:18:06;;;;;;;3.42;1.83;;;22.00;99.90;;;;;;5064474;28;20032;-61
2021/06/29 09:20:38;;;;;;;3.53;2.00;;;22.10;99.90;;;;;;5065509;28;20039;-61
2021/06/29 09:23:14;;;;;;;11.43;2.13;;;22.20;99.90;;;;;;5064436;28;20099;-62
2021/06/29 09:25:47;;;;;;;2.63;1.67;;;22.40;99.90;;;;;;5057069;28;20043;-62
2021/06/29 09:28:15;;;;;;;8.15;1.83;;;22.30;99.90;;;;;;5048965;28;20028;-61
2021/06/29 09:30:55;;;;;;;6.70;2.20;;;22.30;99.90;;;;;;5049360;28;20021;-63
2021/06/29 09:33:31;;;;;;;9.80;2.40;;;22.30;99.90;;;;;;5048936;28;20462;-59
2021/06/29 09:35:58;;;;;;;2.75;2.00;;;22.40;99.90;;;;;;5048945;28;20060;-61
2021/06/29 09:38:36;;;;;;;9.95;2.67;;;22.40;99.90;;;;;;5049066;28;20789;-62
2021/06/29 09:41:05;;;;;;;3.03;2.20;;;22.40;99.90;;;;;;5047984;28;20032;-64
2021/06/29 09:43:35;;;;;;;5.47;2.58;;;22.60;99.90;;;;;;5045003;28;20076;-62
2021/06/29 09:46:02;;;;;;;3.08;1.88;;;22.50;99.90;;;;;;5048326;28;20094;-61
2021/06/29 09:48:33;;;;;;;3.15;2.33;;;22.70;99.90;;;;;;5048612;28;20075;-60
2021/06/29 09:51:10;;;;;;;5.07;2.33;;;23.00;99.90;;;;;;5050996;28;20064;-63
2021/06/29 09:53:42;;;;;;;6.97;2.50;;;22.80;99.90;;;;;;5044907;28;20053;-60
2021/06/29 09:56:13;;;;;;;4.50;2.63;;;22.90;99.90;;;;;;5044257;28;20098;-61
2021/06/29 09:58:41;;;;;;;4.55;2.65;;;23.00;99.90;;;;;;5048342;28;20410;-63
2021/06/29 10:01:08;;;;;;;5.03;2.42;;;23.00;99.90;;;;;;5048847;28;20508;-63
2021/06/29 10:03:38;;;;;;;6.07;2.72;;;23.00;99.90;;;;;;5049720;28;20044;-61
2021/06/29 10:06:22;;;;;;;10.98;3.03;;;22.80;99.90;;;;;;5049638;28;20456;-61
2021/06/29 10:08:50;;;;;;;5.28;2.33;;;23.00;99.90;;;;;;5049705;28;20032;-63
2021/06/29 10:11:21;;;;;;;4.63;2.47;;;23.00;99.90;;;;;;5049535;28;20513;-61
2021/06/29 10:13:55;;;;;;;3.88;2.10;;;23.20;99.90;;;;;;5048599;28;20108;-59
2021/06/29 10:16:25;;;;;;;4.10;2.43;;;23.40;99.90;;;;;;5047484;28;20044;-59
2021/06/29 10:21:26;;;;;;;5.77;2.63;;;23.60;99.90;;;;;;5049481;28;20048;-62
2021/06/29 10:23:56;;;;;;;4.68;2.63;;;23.90;99.90;;;;;;5049219;28;20251;-61
2021/06/29 10:26:25;;;;;;;4.20;3.10;;;23.80;99.90;;;;;;5050046;28;20035;-61
2021/06/29 10:28:52;;;;;;;4.65;2.55;;;23.60;99.90;;;;;;5048973;28;20040;-59
2021/06/29 10:31:25;;;;;;;4.13;2.30;;;23.80;99.90;;;;;;5049070;28;20112;-61
2021/06/29 10:33:52;;;;;;;2.72;2.47;;;23.90;99.90;;;;;;5049441;28;20068;-59
2021/06/29 10:36:19;;;;;;;7.45;2.60;;;24.20;99.90;;;;;;5048914;28;20430;-60
2021/06/29 10:38:45;;;;;;;2.20;2.00;;;24.40;99.90;;;;;;5048233;28;20419;-62
2021/06/29 10:41:12;;;;;;;6.32;2.40;;;24.60;99.90;;;;;;5049241;28;20025;-61
2021/06/29 10:43:39;;;;;;;2.58;2.30;;;24.70;99.90;;;;;;5048047;28;20025;-59
2021/06/29 10:46:04;;;;;;;2.50;1.80;;;24.90;99.90;;;;;;5048224;28;20065;-61
2021/06/29 10:48:31;;;;;;;3.30;2.25;;;25.10;99.90;;;;;;5049372;28;20063;-60
2021/06/29 10:50:59;;;;;;;2.70;2.33;;;25.20;99.90;;;;;;5049029;28;20455;-59
2021/06/29 10:53:44;;;;;;;2.85;2.35;;;25.20;99.90;;;;;;5048857;28;20060;-61
2021/06/29 10:56:16;;;;;;;4.55;1.98;;;25.50;99.90;;;;;;5049295;28;20104;-58
2021/06/29 10:58:50;;;;;;;4.72;1.70;;;25.20;99.90;;;;;;5049022;28;20082;-63
2021/06/29 11:01:33;;;;;;;4.47;1.83;;;25.20;99.90;;;;;;5049025;28;20487;-60
2021/06/29 11:04:04;;;;;;;2.33;2.03;;;25.40;99.90;;;;;;5047166;28;20025;-64
2021/06/29 11:06:33;;;;;;;2.40;1.73;;;25.40;99.90;;;;;;5047480;28;20484;-63
2021/06/29 11:09:00;;;;;;;5.18;2.58;;;25.50;99.90;;;;;;5047693;28;20037;-60
2021/06/29 11:11:29;;;;;;;4.30;2.33;;;25.50;99.90;;;;;;5046227;28;20033;-56
2021/06/29 11:13:57;;;;;;;3.63;1.92;;;25.60;99.90;;;;;;5046738;28;20505;-60
2021/06/29 11:16:55;;;;;;;2.22;1.92;;;25.70;99.90;;;;;;5048785;28;20059;-58
2021/06/29 11:19:21;;;;;;;3.67;2.65;;;25.80;99.90;;;;;;5048767;28;20029;-59
2021/06/29 11:21:47;;;;;;;3.38;2.42;;;25.90;99.90;;;;;;5048403;28;20088;-63
2021/06/29 11:24:36;;;;;;;6.30;3.60;;;25.70;99.90;;;;;;5048842;28;20090;-61
2021/06/29 11:27:02;;;;;;;6.20;3.90;;;26.10;99.90;;;;;;5051928;28;20029;-62
2021/06/29 11:29:43;;;;;;;4.90;3.42;;;26.40;99.90;;;;;;5052620;28;20060;-61
2021/06/29 11:32:31;;;;;;;8.93;2.78;;;26.40;99.90;;;;;;5052269;28;20036;-59
2021/06/29 11:35:38;;;;;;;8.60;3.35;;;26.30;99.90;;;;;;5051740;28;20033;-59
2021/06/29 11:38:07;;;;;;;2.80;2.60;;;26.20;99.90;;;;;;5052544;28;20029;-63
2021/06/29 11:40:33;;;;;;;5.28;3.15;;;26.00;99.90;;;;;;5052046;28;20021;-57
2021/06/29 11:43:14;;;;;;;5.35;3.05;;;25.50;99.90;;;;;;5046194;28;20495;-63
2021/06/29 11:45:40;;;;;;;4.57;2.75;;;25.80;99.90;;;;;;5048022;28;20036;-64
2021/06/29 11:48:44;;;;;;;5.18;2.75;;;26.20;99.90;;;;;;5049209;28;20025;-62
2021/06/29 11:51:10;;;;;;;6.13;3.00;;;26.50;99.90;;;;;;5048212;28;20039;-62
2021/06/29 11:53:40;;;;;;;3.92;2.97;;;26.70;99.90;;;;;;5031923;28;20080;-58
2021/06/29 11:56:10;;;;;;;4.88;2.75;;;26.90;99.90;;;;;;5044963;28;20443;-66
2021/06/29 11:58:45;;;;;;;5.10;3.03;;;27.10;99.90;;;;;;5046621;28;20045;-60
2021/06/29 12:01:10;;;;;;;6.88;2.50;;;27.10;99.90;;;;;;5046560;28;20024;-59
2021/06/29 12:03:36;;;;;;;5.80;3.08;;;27.20;99.90;;;;;;5050666;28;20090;-60
2021/06/29 12:06:01;;;;;;;4.53;3.10;;;27.20;99.90;;;;;;5051215;28;20029;-60
2021/06/29 12:08:27;;;;;;;3.90;3.00;;;27.60;99.90;;;;;;5049305;28;20031;-61
2021/06/29 12:10:54;;;;;;;5.75;3.10;;;27.10;99.90;;;;;;5051398;28;20379;-63
2021/06/29 12:13:25;;;;;;;4.38;3.30;;;26.80;99.90;;;;;;5051146;28;20031;-60
2021/06/29 12:15:55;;;;;;;5.05;3.30;;;26.80;99.90;;;;;;5048074;28;20552;-60
2021/06/29 12:18:29;;;;;;;7.57;3.70;;;26.80;99.90;;;;;;5056635;28;20032;-59
2021/06/29 12:21:02;;;;;;;3.95;3.40;;;26.40;99.90;;;;;;5054983;28;20029;-60
2021/06/29 12:23:33;;;;;;;4.75;3.05;;;26.20;99.90;;;;;;5049815;28;20228;-62
2021/06/29 12:26:07;;;;;;;4.47;3.45;;;26.00;99.90;;;;;;5047815;28;20059;-60
2021/06/29 12:28:38;;;;;;;6.05;3.60;;;25.70;99.90;;;;;;5049380;28;20110;-61
2021/06/29 12:31:13;;;;;;;5.43;3.65;;;26.00;99.90;;;;;;5048746;28;20404;-61
2021/06/29 12:33:44;;;;;;;3.58;3.20;;;26.50;99.90;;;;;;5050484;28;20028;-63
2021/06/29 12:36:13;;;;;;;4.50;2.85;;;26.90;99.90;;;;;;5050243;28;20087;-61
2021/06/29 12:38:48;;;;;;;4.95;3.15;;;26.80;99.90;;;;;;5050718;28;20059;-62
2021/06/29 12:41:26;;;;;;;13.63;3.40;;;27.30;99.90;;;;;;5047508;28;20526;-62
2021/06/29 12:43:58;;;;;;;8.40;3.28;;;27.80;99.90;;;;;;5049859;28;20098;-62
2021/06/29 12:46:26;;;;;;;5.20;3.80;;;27.60;99.90;;;;;;5049092;28;20091;-61